Time;durP1;ratioP1;P1;durP2;ratioP2;P2;SDS_P1;SDS_P2;PMS_P1;PMS_P2;Temp;Humidity;BMP_temperature;BMP_pressure;BME280_temperature;BME280_humidity;BME280_pressure;Samples;Min_cycle;Max_cycle;Signal;HPM_P1;HPM_P2
2022/12/06 00:02:33;;;;;;;109.35;59.98;;;;;;;5.51;81.23;100411.64;2036650;87;33040;-65
2022/12/06 00:05:34;;;;;;;100.07;58.78;;;;;;;5.52;81.29;100408.93;2036904;87;29336;-66
2022/12/06 00:08:36;;;;;;;101.07;58.05;;;;;;;5.54;81.28;100407.58;2036972;87;27725;-67
2022/12/06 00:11:37;;;;;;;98.97;59.63;;;;;;;5.55;81.19;100403.53;2036818;87;28718;-65
2022/12/06 00:14:39;;;;;;;98.12;57.25;;;;;;;5.56;81.27;100401.30;2037039;86;32025;-67
2022/12/06 00:17:40;;;;;;;92.42;53.23;;;;;;;5.58;81.28;100398.59;2036738;87;33836;-65
2022/12/06 00:20:41;;;;;;;101.65;54.83;;;;;;;5.57;81.26;100400.38;2036881;87;30086;-66
2022/12/06 00:23:45;;;;;;;98.10;55.92;;;;;;;5.60;81.27;100402.97;2036828;87;27652;-67
2022/12/06 00:26:48;;;;;;;97.17;55.03;;;;;;;5.62;81.32;100407.78;2036940;87;28718;-67
2022/12/06 00:29:49;;;;;;;93.92;54.70;;;;;;;5.65;81.28;100417.45;2036770;87;31001;-67
2022/12/06 00:32:50;;;;;;;89.58;51.92;;;;;;;5.68;81.31;100417.81;2036688;87;33697;-67
2022/12/06 00:35:58;;;;;;;96.15;53.13;;;;;;;5.67;81.14;100424.93;2036834;87;29144;-65
2022/12/06 00:39:01;;;;;;;98.47;55.73;;;;;;;5.64;81.07;100423.67;2036913;87;27720;-66
2022/12/06 00:42:03;;;;;;;98.12;54.85;;;;;;;5.65;81.17;100429.84;2036388;87;29298;-66
2022/12/06 00:45:06;;;;;;;110.57;62.62;;;;;;;5.67;81.15;100436.00;2065658;86;31836;-66
2022/12/06 00:48:07;;;;;;;105.78;59.77;;;;;;;5.66;81.11;100437.80;2009669;87;32888;-65
2022/12/06 00:51:08;;;;;;;106.35;58.63;;;;;;;5.66;81.12;100437.80;2000156;89;30285;-66
2022/12/06 00:54:13;;;;;;;110.32;60.30;;;;;;;5.68;81.17;100439.08;2000549;89;27721;-65
2022/12/06 00:57:15;;;;;;;103.00;58.90;;;;;;;5.69;81.17;100439.48;2000765;89;29319;-66
2022/12/06 01:00:17;;;;;;;99.62;58.02;;;;;;;5.70;81.21;100442.56;2000485;89;31037;-64
2022/12/06 01:03:19;;;;;;;104.15;58.95;;;;;;;5.72;81.21;100426.13;2000079;89;33127;-65
2022/12/06 01:06:27;;;;;;;110.85;60.78;;;;;;;5.66;80.98;100413.87;2000721;89;29330;-66
2022/12/06 01:09:29;;;;;;;111.88;62.78;;;;;;;5.63;81.06;100420.60;2000636;89;28165;-66
2022/12/06 01:12:31;;;;;;;102.07;60.20;;;;;;;5.62;81.16;100410.44;2000626;87;29133;-67
2022/12/06 01:15:37;;;;;;;109.35;60.65;;;;;;;5.63;81.20;100396.21;2032769;87;31079;-65
2022/12/06 01:18:39;;;;;;;103.32;62.43;;;;;;;5.64;81.18;100381.16;2032884;87;32958;-65
2022/12/06 01:21:40;;;;;;;112.75;62.67;;;;;;;5.64;81.15;100374.51;2012275;88;30259;-67
2022/12/06 01:24:41;;;;;;;115.40;66.47;;;;;;;5.59;80.97;100364.02;2012664;88;27733;-67
2022/12/06 01:27:42;;;;;;;102.40;60.28;;;;;;;5.55;81.06;100358.36;2012593;88;29531;-67
2022/12/06 01:30:44;;;;;;;102.45;60.70;;;;;;;5.51;80.98;100362.48;2012563;87;31035;-68
2022/12/06 01:33:46;;;;;;;104.03;60.52;;;;;;;5.46;81.04;100354.64;2012621;88;32954;-66
2022/12/06 01:36:48;;;;;;;108.30;60.63;;;;;;;5.45;81.19;100342.27;2012693;88;30090;-66
2022/12/06 01:39:50;;;;;;;103.45;58.42;;;;;;;5.46;81.21;100338.70;2012648;87;27671;-67
2022/12/06 01:42:51;;;;;;;109.42;58.28;;;;;;;5.44;81.11;100335.22;2012089;88;29457;-66
2022/12/06 01:45:52;;;;;;;100.05;58.38;;;;;;;5.42;81.16;100326.41;2012651;88;31116;-66
2022/12/06 01:49:14;;;;;;;102.70;59.13;;;;;;;5.42;81.22;100321.95;2012706;88;33772;-65
2022/12/06 01:52:16;;;;;;;101.40;57.62;;;;;;;5.41;81.22;100305.59;2011045;87;30118;-65
2022/12/06 01:55:20;;;;;;;109.50;60.65;;;;;;;5.39;81.22;100305.23;2012682;88;27655;-66
2022/12/06 01:58:26;;;;;;;86.90;49.93;;;;;;;5.36;81.14;100307.53;2012908;88;32302;-65
2022/12/06 02:01:29;;;;;;;107.47;61.30;;;;;;;5.30;81.18;100307.22;2012576;88;31853;-66
2022/12/06 02:04:31;;;;;;;108.67;63.65;;;;;;;5.28;81.22;100306.86;2012504;88;32963;-64
2022/12/06 02:07:33;;;;;;;110.22;61.88;;;;;;;5.27;81.40;100315.30;2012595;88;30198;-66
2022/12/06 02:10:35;;;;;;;102.45;59.90;;;;;;;5.29;81.48;100317.47;2012674;88;27626;-65
2022/12/06 02:13:37;;;;;;;103.35;57.83;;;;;;;5.33;81.50;100324.88;1998521;88;29484;-66
2022/12/06 02:17:20;;;;;;;95.97;58.08;;;;;;;5.35;81.49;100320.84;1980763;89;31037;-65
2022/12/06 02:20:31;;;;;;;106.67;56.13;;;;;;;5.36;81.48;100322.15;2036660;87;33937;-65
2022/12/06 02:24:01;;;;;;;99.67;56.40;;;;;;;5.37;81.45;100317.25;2015990;87;30119;-66
2022/12/06 02:27:23;;;;;;;93.90;52.75;;;;;;;5.40;81.44;100325.11;2037093;87;27750;-67
2022/12/06 02:30:45;;;;;;;93.67;53.48;;;;;;;5.39;81.41;100317.19;2037016;87;28603;-66
2022/12/06 02:33:53;;;;;;;107.95;59.90;;;;;;;5.39;81.45;100314.53;2036932;87;31200;-65
2022/12/06 02:37:00;;;;;;;103.30;58.35;;;;;;;5.39;81.42;100310.08;2037380;87;32959;-66
2022/12/06 02:40:16;;;;;;;98.92;56.25;;;;;;;5.36;81.41;100300.89;2037423;87;30060;-65
2022/12/06 02:43:21;;;;;;;98.55;56.95;;;;;;;5.35;81.32;100291.63;2036900;86;27740;-65
2022/12/06 02:46:28;;;;;;;107.75;59.83;;;;;;;5.32;81.43;100296.10;2036910;87;28691;-65
2022/12/06 02:49:32;;;;;;;96.95;56.30;;;;;;;5.32;81.43;100280.16;2037116;87;31440;-65
2022/12/06 02:52:37;;;;;;;98.30;56.37;;;;;;;5.31;81.49;100278.42;2036920;87;33760;-66
2022/12/06 02:55:38;;;;;;;;;;;;;;;5.33;81.56;100274.41;2039435;87;29364;-65
2022/12/06 02:58:39;;;;;;;96.90;57.00;;;;;;;5.32;81.49;100275.32;2037068;87;27665;-66
2022/12/06 03:01:48;;;;;;;103.15;57.55;;;;;;;5.31;81.58;100275.77;2036984;87;28680;-66
2022/12/06 03:05:00;;;;;;;103.92;57.40;;;;;;;5.31;81.58;100269.12;2036594;87;32125;-65
2022/12/06 03:08:05;;;;;;;101.45;58.30;;;;;;;5.33;81.57;100269.95;2069463;85;33793;-65
2022/12/06 03:11:06;;;;;;;111.75;63.10;;;;;;;5.35;81.54;100275.68;2070592;85;29337;-66
2022/12/06 03:14:13;;;;;;;108.12;62.10;;;;;;;5.35;81.50;100282.33;2025590;87;27700;-66
2022/12/06 03:17:50;;;;;;;104.95;64.05;;;;;;;5.35;81.53;100276.57;2037075;87;28765;-66
2022/12/06 03:20:55;;;;;;;109.75;60.10;;;;;;;5.37;81.59;100271.20;2036907;87;31707;-65
2022/12/06 03:23:58;;;;;;;108.70;63.90;;;;;;;5.40;81.60;100269.79;2037527;87;32990;-66
2022/12/06 03:27:04;;;;;;;111.45;62.70;;;;;;;5.42;81.62;100268.82;2036842;87;30131;-63
2022/12/06 03:30:09;;;;;;;106.37;59.45;;;;;;;5.45;81.60;100266.55;2037007;87;27601;-65
2022/12/06 03:33:13;;;;;;;100.82;59.23;;;;;;;5.46;81.60;100261.19;2016649;87;28646;-64
2022/12/06 03:36:15;;;;;;;101.33;59.95;;;;;;;5.48;81.55;100262.45;2042154;86;31037;-65
2022/12/06 03:39:24;;;;;;;98.87;58.15;;;;;;;5.48;81.52;100261.13;2036920;87;33106;-65
2022/12/06 03:42:26;;;;;;;98.80;58.23;;;;;;;5.48;81.54;100262.45;2036082;86;29452;-66
2022/12/06 03:45:33;;;;;;;103.38;59.58;;;;;;;5.49;81.54;100262.87;2036924;87;27728;-65
2022/12/06 03:48:54;;;;;;;101.67;56.85;;;;;;;5.50;81.49;100265.94;2032943;87;28868;-66
2022/12/06 03:51:56;;;;;;;92.80;56.55;;;;;;;5.51;81.52;100260.19;2036918;87;31039;-66
2022/12/06 03:54:57;;;;;;;103.20;59.45;;;;;;;5.49;81.47;100249.58;2036905;87;32942;-66
2022/12/06 03:57:59;;;;;;;101.97;58.60;;;;;;;5.48;81.44;100243.41;2036921;87;29323;-65
2022/12/06 04:01:03;;;;;;;98.62;58.83;;;;;;;5.47;81.46;100243.00;2036912;87;28298;-65
2022/12/06 04:04:04;;;;;;;104.63;61.58;;;;;;;5.48;81.46;100250.50;2036629;87;28675;-66
2022/12/06 04:07:06;;;;;;;104.40;59.85;;;;;;;5.49;81.51;100254.90;2060721;86;31048;-65
2022/12/06 04:10:08;;;;;;;102.38;58.98;;;;;;;5.50;81.50;100252.66;2070754;85;32920;-66
2022/12/06 04:13:09;;;;;;;105.72;59.83;;;;;;;5.51;81.52;100242.91;2070689;85;29327;-66
2022/12/06 04:19:31;;;;;;;96.15;55.95;;;;;;;5.53;81.57;100238.43;2032812;87;29616;-66
2022/12/06 04:25:53;;;;;;;90.72;52.15;;;;;;;5.53;81.51;100249.91;2033167;87;33544;-64
2022/12/06 04:38:53;;;;;;;87.85;51.30;;;;;;;5.54;81.68;100250.80;2033102;87;31071;-65
2022/12/06 04:45:16;;;;;;;89.32;51.58;;;;;;;5.50;81.57;100243.36;2032791;87;29438;-66
2022/12/06 04:48:17;;;;;;;83.12;50.38;;;;;;;5.50;81.59;100238.52;2033089;87;27675;-65
2022/12/06 04:51:19;;;;;;;86.78;50.73;;;;;;;5.48;81.70;100228.80;2012800;88;29581;-66
2022/12/06 04:54:21;;;;;;;84.80;49.67;;;;;;;5.48;81.76;100229.24;2012632;88;31030;-65
2022/12/06 04:57:22;;;;;;;86.08;48.80;;;;;;;5.48;81.79;100225.25;2012625;88;33779;-66
2022/12/06 05:00:24;;;;;;;81.37;49.18;;;;;;;5.48;81.89;100218.17;2012679;88;29318;-65
2022/12/06 05:03:25;;;;;;;86.37;50.50;;;;;;;5.50;81.94;100216.78;2012821;87;27737;-65
2022/12/06 05:06:26;;;;;;;79.15;47.65;;;;;;;5.50;81.91;100219.44;2007298;87;28725;-66
2022/12/06 05:09:28;;;;;;;82.10;51.08;;;;;;;5.47;81.90;100209.78;2012771;87;31015;-66
2022/12/06 05:12:29;;;;;;;93.37;52.40;;;;;;;5.45;81.94;100211.61;2012717;88;32938;-65
2022/12/06 05:15:31;;;;;;;100.10;55.55;;;;;;;5.45;82.04;100209.44;2012784;88;29387;-65
2022/12/06 05:18:33;;;;;;;100.92;56.15;;;;;;;5.43;82.06;100208.61;2012736;87;27711;-65
2022/12/06 05:21:34;;;;;;;102.87;59.45;;;;;;;5.41;82.02;100201.98;2012660;87;28644;-66
2022/12/06 05:24:35;;;;;;;105.10;58.65;;;;;;;5.39;81.97;100203.81;2012785;87;31067;-65
2022/12/06 05:27:37;;;;;;;102.82;58.30;;;;;;;5.37;82.10;100195.49;2012730;88;32946;-67
2022/12/06 05:30:38;;;;;;;104.15;60.20;;;;;;;5.37;82.12;100196.37;2012778;88;30073;-64
2022/12/06 05:33:40;;;;;;;115.80;62.88;;;;;;;5.36;82.13;100197.73;2012721;88;27686;-65
2022/12/06 05:36:43;;;;;;;108.45;60.10;;;;;;;5.35;82.15;100203.96;2012615;87;29338;-66
2022/12/06 05:39:44;;;;;;;104.07;59.88;;;;;;;5.33;82.23;100199.56;2070612;85;31105;-66
2022/12/06 05:42:46;;;;;;;112.52;60.33;;;;;;;5.34;82.27;100200.45;2070199;86;32929;-66
2022/12/06 05:45:52;;;;;;;109.15;62.55;;;;;;;5.32;82.30;100195.63;2039301;87;29540;-66
2022/12/06 05:48:53;;;;;;;123.13;65.28;;;;;;;5.35;82.46;100201.30;2039579;87;27600;-66
2022/12/06 05:51:54;;;;;;;119.53;62.62;;;;;;;5.34;82.54;100195.14;2039186;87;28861;-66
2022/12/06 05:54:56;;;;;;;114.40;61.33;;;;;;;5.34;82.48;100195.14;2039446;87;31005;-65
2022/12/06 05:57:57;;;;;;;114.20;61.18;;;;;;;5.34;82.47;100191.16;2039429;87;33003;-66
2022/12/06 06:00:58;;;;;;;113.50;64.90;;;;;;;5.33;82.57;100192.92;2039595;87;29998;-66
2022/12/06 06:04:00;;;;;;;110.52;64.53;;;;;;;5.35;82.54;100195.55;2039439;87;27614;-66
2022/12/06 06:07:01;;;;;;;113.28;63.17;;;;;;;5.33;82.52;100197.38;2014931;87;28737;-67
2022/12/06 06:10:05;;;;;;;118.30;63.73;;;;;;;5.32;82.59;100195.63;2006708;88;31022;-67
2022/12/06 06:13:06;;;;;;;114.22;63.52;;;;;;;5.30;82.61;100194.33;2006770;88;33755;-67
2022/12/06 06:16:08;;;;;;;116.53;64.20;;;;;;;5.29;82.57;100197.94;2006817;88;29492;-67
2022/12/06 06:19:10;;;;;;;111.65;61.70;;;;;;;5.27;82.56;100197.11;2006861;88;27634;-67
2022/12/06 06:22:12;;;;;;;106.35;60.05;;;;;;;5.25;82.60;100200.70;2006757;88;28659;-67
2022/12/06 06:25:13;;;;;;;106.05;61.15;;;;;;;5.24;82.60;100202.94;2006739;88;31291;-67
2022/12/06 06:28:15;;;;;;;97.15;55.83;;;;;;;5.23;82.65;100207.84;2006561;88;33182;-67
2022/12/06 06:31:16;;;;;;;101.22;55.73;;;;;;;5.21;82.59;100208.38;2006703;88;29329;-67
2022/12/06 06:34:18;;;;;;;99.00;55.55;;;;;;;5.19;82.57;100210.20;2007014;88;27623;-67
2022/12/06 06:37:19;;;;;;;88.27;51.75;;;;;;;5.17;82.61;100211.11;2008600;87;28687;-67
2022/12/06 06:40:21;;;;;;;74.82;41.53;;;;;;;5.17;82.74;100211.55;2006811;88;32205;-66
2022/12/06 06:43:22;;;;;;;70.70;42.15;;;;;;;5.17;82.71;100213.77;2006481;88;34161;-66
2022/12/06 06:46:24;;;;;;;68.55;40.10;;;;;;;5.15;82.59;100204.97;2006453;88;29389;-66
2022/12/06 06:49:26;;;;;;;67.85;38.13;;;;;;;5.15;82.61;100214.27;2006503;88;27234;-67
2022/12/06 06:52:28;;;;;;;60.50;35.60;;;;;;;5.13;82.57;100217.41;2006822;88;29478;-66
2022/12/06 06:55:29;;;;;;;62.15;33.78;;;;;;;5.12;82.51;100217.47;2006717;88;31833;-66
2022/12/06 06:58:31;;;;;;;48.95;27.85;;;;;;;5.09;82.33;100218.41;2006858;88;33342;-66
2022/12/06 07:01:33;;;;;;;42.62;24.87;;;;;;;5.06;82.23;100213.65;2006968;88;29452;-66
2022/12/06 07:04:34;;;;;;;41.75;24.40;;;;;;;5.05;82.33;100218.55;2007174;87;27687;-66
2022/12/06 07:07:35;;;;;;;39.25;23.25;;;;;;;5.04;82.38;100208.84;2039711;87;28583;-68
2022/12/06 07:10:36;;;;;;;30.95;19.35;;;;;;;5.00;82.26;100209.39;2039562;86;32191;-67
2022/12/06 07:13:40;;;;;;;33.45;20.90;;;;;;;4.98;82.18;100212.54;2039214;87;33011;-66
2022/12/06 07:16:41;;;;;;;27.45;19.32;;;;;;;4.94;82.12;100208.22;2039671;87;29333;-66
2022/12/06 07:19:42;;;;;;;33.18;20.90;;;;;;;4.92;82.16;100201.64;2039644;87;27714;-66
2022/12/06 07:22:44;;;;;;;36.53;21.52;;;;;;;4.90;82.24;100191.52;2039517;86;28604;-66
2022/12/06 07:25:45;;;;;;;33.18;21.33;;;;;;;4.88;82.27;100205.28;2039454;87;31064;-67
2022/12/06 07:28:49;;;;;;;28.42;18.77;;;;;;;4.89;82.39;100212.78;2039466;87;32974;-66
2022/12/06 07:31:50;;;;;;;31.52;20.08;;;;;;;4.88;82.26;100206.61;2039419;87;29328;-66
2022/12/06 07:34:51;;;;;;;33.63;21.82;;;;;;;4.84;82.26;100208.48;2039401;87;27745;-66
2022/12/06 07:37:53;;;;;;;34.13;21.57;;;;;;;4.84;82.17;100199.64;2039557;87;28627;-66
2022/12/06 07:40:56;;;;;;;36.38;22.73;;;;;;;4.81;82.26;100195.73;2039424;87;30999;-66
2022/12/06 07:47:18;;;;;;;30.40;20.55;;;;;;;4.82;82.37;100191.73;2012549;87;29388;-66
2022/12/06 07:50:21;;;;;;;30.77;20.27;;;;;;;4.83;82.49;100197.89;2012887;88;27635;-66
2022/12/06 07:53:23;;;;;;;30.90;20.25;;;;;;;4.85;82.44;100193.42;2012504;87;28707;-66
2022/12/06 07:56:24;;;;;;;33.73;22.45;;;;;;;4.84;82.41;100187.70;2012847;88;31009;-66
2022/12/06 07:59:26;;;;;;;45.38;25.50;;;;;;;4.85;82.46;100194.31;2012804;87;33767;-67
2022/12/06 08:02:28;;;;;;;38.58;21.68;;;;;;;4.88;82.50;100196.47;2012838;88;29313;-67
2022/12/06 08:05:29;;;;;;;46.45;27.27;;;;;;;4.89;82.52;100196.84;2000017;88;27726;-67
2022/12/06 08:08:31;;;;;;;46.20;27.20;;;;;;;4.91;82.55;100197.24;2036847;87;29438;-66
2022/12/06 08:11:33;;;;;;;35.48;22.62;;;;;;;4.92;82.52;100183.50;2036916;87;31042;-66
2022/12/06 08:14:36;;;;;;;38.23;23.83;;;;;;;4.93;82.54;100183.91;2036907;87;32977;-66
2022/12/06 08:17:39;;;;;;;37.23;20.75;;;;;;;4.95;82.52;100184.75;2036705;87;29319;-67
2022/12/06 08:20:41;;;;;;;32.03;20.02;;;;;;;4.94;82.48;100174.59;2036016;87;28250;-66
2022/12/06 08:23:45;;;;;;;26.60;17.40;;;;;;;4.96;82.58;100177.20;2036816;87;28643;-66
2022/12/06 08:26:47;;;;;;;30.37;21.80;;;;;;;4.97;82.46;100181.12;2037137;87;31032;-66
2022/12/06 08:29:49;;;;;;;26.10;18.60;;;;;;;4.95;82.11;100171.47;2036908;87;33620;-66
2022/12/06 08:32:50;;;;;;;24.90;16.25;;;;;;;4.92;82.10;100181.73;2036839;87;30319;-66
2022/12/06 08:35:51;;;;;;;21.95;14.78;;;;;;;4.91;82.17;100179.10;2037059;86;27757;-66
2022/12/06 08:38:52;;;;;;;20.37;13.95;;;;;;;4.89;82.15;100190.21;2037126;87;28679;-66
2022/12/06 08:41:54;;;;;;;24.47;14.53;;;;;;;4.89;82.18;100189.77;2037022;87;31862;-66
2022/12/06 08:44:55;;;;;;;19.90;13.58;;;;;;;4.89;82.19;100187.56;2036733;87;32941;-66
2022/12/06 08:47:56;;;;;;;22.80;14.90;;;;;;;4.90;82.14;100187.97;2037026;87;29400;-66
2022/12/06 08:51:02;;;;;;;23.52;14.13;;;;;;;4.90;82.14;100187.53;2036992;87;27704;-66
2022/12/06 08:54:06;;;;;;;19.45;12.90;;;;;;;4.90;82.14;100188.86;2036643;87;28789;-66
2022/12/06 08:57:08;;;;;;;20.25;13.28;;;;;;;4.94;82.19;100184.33;2036894;87;31035;-66
2022/12/06 09:00:12;;;;;;;18.90;11.97;;;;;;;4.95;82.16;100184.75;2038753;86;33663;-66
2022/12/06 09:03:13;;;;;;;17.67;11.53;;;;;;;4.97;82.09;100184.25;2036495;87;30169;-66
2022/12/06 09:06:15;;;;;;;16.70;11.38;;;;;;;4.96;81.97;100180.73;2036856;87;27804;-66
2022/12/06 09:09:17;;;;;;;18.15;11.45;;;;;;;4.95;81.88;100172.36;2036795;87;29504;-66
2022/12/06 09:12:19;;;;;;;16.37;10.85;;;;;;;4.94;81.86;100161.77;2036868;87;31707;-67
2022/12/06 09:15:20;;;;;;;17.65;13.40;;;;;;;4.94;81.89;100160.00;2036820;87;33627;-65
2022/12/06 09:18:21;;;;;;;19.23;11.18;;;;;;;4.96;81.76;100162.59;2037109;87;29316;-65
2022/12/06 09:21:26;;;;;;;16.12;12.03;;;;;;;4.95;81.79;100166.16;2016299;87;27753;-65
2022/12/06 09:24:28;;;;;;;22.13;14.63;;;;;;;4.97;81.92;100168.32;2036742;87;29485;-66
2022/12/06 09:27:32;;;;;;;25.02;14.30;;;;;;;4.97;81.72;100171.83;2036741;87;31114;-66
2022/12/06 09:30:33;;;;;;;20.90;13.13;;;;;;;4.95;81.71;100160.41;2054116;86;32974;-65
2022/12/06 09:33:34;;;;;;;18.20;13.13;;;;;;;4.96;81.69;100160.83;2033156;87;29305;-65
2022/12/06 09:36:41;;;;;;;23.25;14.53;;;;;;;4.97;81.82;100165.19;2033160;87;27632;-65
2022/12/06 09:39:54;;;;;;;24.12;16.75;;;;;;;4.99;81.78;100171.33;2033149;87;28668;-65
2022/12/06 09:43:07;;;;;;;22.73;13.95;;;;;;;4.98;81.57;100162.95;2031882;87;31269;-65
2022/12/06 09:46:32;;;;;;;20.77;16.12;;;;;;;4.97;81.67;100159.03;2032693;87;32918;-65
2022/12/06 09:49:59;;;;;;;20.90;14.25;;;;;;;4.98;81.68;100159.44;2033126;87;30124;-65
2022/12/06 09:53:15;;;;;;;28.85;20.05;;;;;;;4.98;81.67;100160.30;2028679;87;27699;-66
2022/12/06 09:56:37;;;;;;;19.10;13.53;;;;;;;4.99;81.71;100159.86;2032490;87;28112;-66
2022/12/06 10:00:11;;;;;;;17.50;12.70;;;;;;;5.00;81.67;100154.49;2032735;87;31828;-66
2022/12/06 10:03:30;;;;;;;17.10;12.55;;;;;;;5.01;81.60;100157.56;2032938;87;33005;-65
2022/12/06 10:06:40;;;;;;;20.35;12.35;;;;;;;4.98;81.47;100162.95;2032643;87;29393;-66
2022/12/06 10:09:58;;;;;;;16.77;11.97;;;;;;;4.96;81.39;100154.63;2032986;87;27762;-66
2022/12/06 10:13:23;;;;;;;41.25;24.12;;;;;;;4.95;81.54;100143.59;2032417;87;28736;-65
2022/12/06 10:16:58;;;;;;;49.37;27.20;;;;;;;4.94;81.49;100123.27;2013088;87;31816;-66
2022/12/06 10:20:11;;;;;;;23.87;15.63;;;;;;;4.94;81.44;100121.51;2012929;87;32972;-66
2022/12/06 10:23:31;;;;;;;23.60;16.75;;;;;;;4.95;81.60;100113.06;1975445;88;29186;-66
2022/12/06 10:26:51;;;;;;;20.00;13.10;;;;;;;4.98;81.62;100109.00;2012769;88;27738;-65
2022/12/06 10:30:10;;;;;;;19.23;14.15;;;;;;;4.98;81.60;100107.20;2012500;88;28049;-66
2022/12/06 10:33:20;;;;;;;20.85;13.98;;;;;;;5.00;81.52;100104.52;2012420;88;31048;-66
2022/12/06 10:36:33;;;;;;;23.83;17.73;;;;;;;4.98;81.47;100099.23;2012350;88;33899;-66
2022/12/06 10:39:40;;;;;;;24.57;17.05;;;;;;;5.01;81.58;100099.62;2009374;88;29489;-65
2022/12/06 10:42:59;;;;;;;23.10;15.75;;;;;;;5.00;81.40;100104.52;2012883;87;27635;-66
2022/12/06 10:50:06;;;;;;;23.77;18.48;;;;;;;4.99;81.55;100098.80;2012562;88;31209;-65
2022/12/06 10:53:18;;;;;;;20.70;16.07;;;;;;;4.99;81.52;100105.44;1986462;88;33152;-67
2022/12/06 10:56:38;;;;;;;24.52;17.42;;;;;;;4.96;81.40;100098.88;2055925;86;29330;-64
2022/12/06 11:00:04;;;;;;;24.18;17.23;;;;;;;4.93;81.35;100087.02;2070861;86;27699;-66
2022/12/06 11:03:38;;;;;;;25.27;16.67;;;;;;;4.95;81.57;100090.06;2070343;85;29907;-66
2022/12/06 11:06:48;;;;;;;24.12;16.30;;;;;;;4.99;81.60;100086.38;2070703;86;30861;-66
2022/12/06 11:09:53;;;;;;;25.08;17.12;;;;;;;5.01;81.61;100084.55;2070543;85;33931;-65
2022/12/06 11:13:00;;;;;;;23.12;15.72;;;;;;;5.04;81.50;100080.07;2033172;87;29323;-66
2022/12/06 11:16:31;;;;;;;19.98;14.50;;;;;;;5.00;81.45;100077.50;2033147;87;28289;-65
2022/12/06 11:19:37;;;;;;;20.52;13.80;;;;;;;4.96;81.32;100070.57;2012760;87;28668;-66
2022/12/06 11:23:16;;;;;;;22.65;14.73;;;;;;;4.96;81.41;100069.69;1991049;88;31221;-65
2022/12/06 11:26:44;;;;;;;26.40;16.37;;;;;;;4.94;81.29;100060.45;1973857;90;32962;-66
2022/12/06 11:29:49;;;;;;;31.17;17.50;;;;;;;4.93;81.45;100057.83;1973992;90;30332;-66
2022/12/06 11:32:52;;;;;;;32.73;17.55;;;;;;;4.94;81.35;100055.58;1906321;93;27761;-65
2022/12/06 11:35:54;;;;;;;31.50;16.97;;;;;;;4.94;81.35;100043.64;1920445;92;28705;-66
2022/12/06 11:38:57;;;;;;;40.35;20.95;;;;;;;4.94;81.33;100050.27;1937354;91;31403;-65
2022/12/06 11:42:02;;;;;;;28.50;19.85;;;;;;;4.91;81.09;100048.59;1920682;92;33931;-65
2022/12/06 11:45:08;;;;;;;20.80;16.73;;;;;;;4.92;81.27;100051.66;1938650;91;30158;-65
2022/12/06 11:48:18;;;;;;;20.45;15.18;;;;;;;4.92;81.21;100047.68;1914126;93;28407;-65
2022/12/06 11:51:23;;;;;;;17.32;14.33;;;;;;;4.94;81.30;100045.85;1919489;91;28766;-65
2022/12/06 11:54:31;;;;;;;;;;;;;;;4.93;80.84;100044.11;1944267;91;31085;-66
2022/12/06 11:57:43;;;;;;;15.63;12.55;;;;;;;4.92;80.99;100040.16;1963466;90;32407;-66
2022/12/06 12:01:04;;;;;;;16.10;12.13;;;;;;;4.90;80.97;100028.27;1963776;90;29046;-66
2022/12/06 12:04:32;;;;;;;17.85;12.45;;;;;;;4.91;81.09;100026.03;1990581;89;27742;-66
2022/12/06 12:07:34;;;;;;;16.07;11.33;;;;;;;4.92;81.05;100022.91;1994285;89;29443;-65
2022/12/06 12:10:42;;;;;;;15.00;11.50;;;;;;;4.94;81.05;100025.05;2034440;87;31038;-65
2022/12/06 12:13:51;;;;;;;17.98;13.25;;;;;;;4.97;81.17;100028.47;2034444;87;32378;-64
2022/12/06 12:16:57;;;;;;;17.90;12.47;;;;;;;4.99;81.07;100027.97;2034645;87;29346;-65
2022/12/06 12:20:06;;;;;;;17.35;13.28;;;;;;;4.99;80.95;100023.14;2034726;87;27624;-66
2022/12/06 12:23:21;;;;;;;15.75;12.13;;;;;;;5.00;80.96;100024.88;2064635;86;28665;-65
2022/12/06 12:26:24;;;;;;;24.23;15.35;;;;;;;5.00;80.77;100025.73;2068195;86;31039;-65
2022/12/06 12:29:26;;;;;;;20.23;15.45;;;;;;;4.99;80.82;100025.80;2048650;86;32967;-65
2022/12/06 12:32:28;;;;;;;24.27;20.85;;;;;;;5.01;80.79;100030.60;2068369;86;29324;-65
2022/12/06 12:35:29;;;;;;;21.65;16.85;;;;;;;5.01;80.91;100027.47;2068332;86;28287;-65
2022/12/06 12:38:39;;;;;;;18.17;13.90;;;;;;;5.05;80.81;100032.69;2068160;85;28685;-66
2022/12/06 12:41:44;;;;;;;18.90;14.35;;;;;;;5.00;80.62;100032.37;2068348;86;31035;-65
2022/12/06 12:44:46;;;;;;;17.25;14.05;;;;;;;4.99;80.65;100020.02;2068263;86;33973;-65
2022/12/06 12:48:03;;;;;;;15.35;12.35;;;;;;;4.98;80.69;100023.58;2029514;87;30121;-66
2022/12/06 12:51:27;;;;;;;16.95;12.15;;;;;;;4.98;80.61;100017.41;2029640;87;27715;-66
2022/12/06 12:54:39;;;;;;;18.25;13.68;;;;;;;4.95;80.66;100015.73;2029586;87;29495;-66
2022/12/06 12:57:39;;;;;;;15.32;12.00;;;;;;;4.96;80.77;100018.80;2028990;87;31036;-66
2022/12/06 13:00:44;;;;;;;17.27;12.98;;;;;;;4.94;80.43;100017.98;2029773;87;33753;-66
2022/12/06 13:03:46;;;;;;;18.60;13.18;;;;;;;4.90;80.40;100012.34;2029900;87;29397;-67
2022/12/06 13:07:02;;;;;;;19.55;13.25;;;;;;;4.88;80.38;100010.67;2029762;87;27763;-67
2022/12/06 13:10:18;;;;;;;25.75;16.32;;;;;;;4.85;80.27;100010.28;2007837;87;28671;-66
2022/12/06 13:13:41;;;;;;;17.42;14.05;;;;;;;4.83;80.48;100006.36;2029694;87;31884;-66
2022/12/06 13:16:43;;;;;;;17.00;14.75;;;;;;;4.84;80.46;100005.45;2029687;87;33819;-65
2022/12/06 13:19:46;;;;;;;16.77;13.15;;;;;;;4.86;80.56;99999.64;2029791;87;30068;-66
2022/12/06 13:22:53;;;;;;;20.35;13.43;;;;;;;4.86;80.41;99999.64;2005101;87;27630;-65
2022/12/06 13:26:14;;;;;;;38.20;20.45;;;;;;;4.84;80.37;100004.13;1997075;89;29584;-66
2022/12/06 13:29:27;;;;;;;36.35;25.27;;;;;;;4.83;80.39;99999.73;1997394;89;31268;-66
2022/12/06 13:32:40;;;;;;;24.07;17.85;;;;;;;4.81;80.24;100001.55;1997319;89;58061;-66
2022/12/06 13:35:56;;;;;;;21.75;14.68;;;;;;;4.80;80.42;100003.80;1996907;88;30207;-66
2022/12/06 13:38:58;;;;;;;26.52;16.82;;;;;;;4.79;80.30;100010.02;1994069;89;27751;-66
2022/12/06 13:42:18;;;;;;;28.83;16.27;;;;;;;4.76;80.27;100008.78;1997401;89;28679;-67
2022/12/06 13:45:45;;;;;;;24.12;15.95;;;;;;;4.74;80.24;100017.23;1998738;87;31964;-67
2022/12/06 13:48:59;;;;;;;38.55;20.62;;;;;;;4.70;80.16;100022.25;2031113;87;33064;-69
2022/12/06 13:52:01;;;;;;;27.67;19.00;;;;;;;4.68;80.39;100024.08;2031741;86;30139;-67
2022/12/06 13:55:28;;;;;;;23.30;15.50;;;;;;;4.67;80.40;100017.03;2031322;87;27658;-67
2022/12/06 13:58:35;;;;;;;21.80;14.93;;;;;;;4.66;80.35;100025.43;2031626;87;28727;-67
2022/12/06 14:01:47;;;;;;;26.62;16.95;;;;;;;4.64;80.28;100026.41;2031703;87;31029;-67
2022/12/06 14:04:49;;;;;;;25.88;15.70;;;;;;;4.62;80.46;100022.92;2031512;87;32985;-68
2022/12/06 14:07:56;;;;;;;25.60;16.25;;;;;;;4.60;80.31;100024.75;2031639;87;29352;-67
2022/12/06 14:11:26;;;;;;;22.93;14.78;;;;;;;4.56;80.29;100022.65;2031662;87;28187;-68
2022/12/06 14:14:27;;;;;;;22.62;14.13;;;;;;;4.55;80.41;100016.92;2031578;87;28889;-68
2022/12/06 14:17:42;;;;;;;24.52;14.58;;;;;;;4.50;80.33;100023.70;2031805;87;31007;-68
2022/12/06 14:20:44;;;;;;;25.52;16.77;;;;;;;4.48;80.34;100020.22;2033462;86;32944;-66
2022/12/06 14:23:47;;;;;;;27.37;17.42;;;;;;;4.47;80.40;100014.97;2064843;86;29417;-66
2022/12/06 14:26:50;;;;;;;25.17;17.20;;;;;;;4.47;80.41;100013.64;2065197;86;27716;-68
2022/12/06 14:30:17;;;;;;;28.55;18.87;;;;;;;4.46;80.44;100006.60;2065178;86;29508;-67
2022/12/06 14:33:21;;;;;;;29.72;18.25;;;;;;;4.47;80.61;100009.20;2062738;86;31850;-66
2022/12/06 14:36:31;;;;;;;28.05;17.10;;;;;;;4.47;80.50;100009.67;2031509;87;33622;-66
2022/12/06 14:39:32;;;;;;;24.95;17.48;;;;;;;4.48;80.55;100012.70;2031407;87;29376;-67
2022/12/06 14:45:55;;;;;;;30.30;20.90;;;;;;;4.43;80.53;100006.69;2031976;87;28767;-66